createdAt,value
2022-09-22T09:23:01.561Z,6.90
2022-09-22T09:38:53.024Z,7.33
2022-09-22T09:41:32.478Z,6.83
2022-09-22T09:44:02.965Z,7.80
2022-09-22T09:46:49.476Z,6.70
2022-09-22T09:49:23.997Z,5.90
2022-09-22T09:51:56.408Z,6.80
2022-09-22T09:54:27.532Z,6.27
2022-09-22T09:57:09.701Z,7.03
2022-09-22T09:59:57.971Z,6.40
2022-09-22T10:02:29.904Z,5.97
2022-09-22T10:05:01.483Z,6.57
2022-09-22T10:07:32.702Z,7.07
2022-09-22T10:10:41.076Z,7.70
2022-09-22T10:13:33.864Z,6.87
2022-09-22T10:16:21.245Z,7.90
2022-09-22T10:19:04.206Z,5.77
2022-09-22T10:21:33.373Z,6.30
2022-09-22T10:24:02.352Z,6.60
2022-09-22T10:26:41.027Z,6.40
2022-09-22T10:29:18.146Z,5.80
2022-09-22T10:32:06.155Z,5.87
2022-09-22T10:34:39.775Z,6.20
2022-09-22T10:37:16.419Z,5.70
2022-09-22T10:39:47.167Z,5.53
2022-09-22T10:42:37.079Z,5.90
2022-09-22T10:45:08.267Z,5.70
2022-09-22T10:48:02.265Z,6.07
2022-09-22T10:50:58.776Z,5.50
2022-09-22T10:53:37.532Z,5.93
2022-09-22T10:56:15.297Z,5.50
2022-09-22T10:59:03.112Z,6.50
2022-09-22T11:01:50.919Z,5.33
2022-09-22T11:04:42.943Z,6.17
2022-09-22T11:07:46.876Z,6.00
2022-09-22T11:10:42.393Z,5.20
2022-09-22T11:13:22.836Z,6.23
2022-09-22T11:16:13.351Z,7.20
2022-09-22T11:19:04.197Z,6.37
2022-09-22T11:21:45.712Z,5.90
2022-09-22T11:24:31.370Z,6.00
2022-09-22T11:27:02.064Z,5.80
2022-09-22T11:30:00.942Z,5.47
2022-09-22T11:32:47.251Z,5.80
2022-09-22T11:35:41.632Z,8.57
2022-09-22T11:38:24.754Z,6.43
2022-09-22T11:41:16.730Z,5.30
2022-09-22T11:44:01.441Z,5.40
2022-09-22T11:46:42.500Z,5.20
2022-09-22T11:49:23.963Z,5.43
2022-09-22T11:52:17.250Z,5.50
2022-09-22T11:55:15.215Z,7.10
2022-09-22T11:57:48.173Z,5.47
2022-09-22T12:00:19.950Z,5.90
2022-09-22T12:03:02.136Z,5.20
2022-09-22T12:05:41.567Z,5.17
2022-09-22T12:08:18.170Z,6.87
2022-09-22T12:10:50.092Z,5.20
2022-09-22T12:13:22.113Z,5.50
2022-09-22T12:16:06.640Z,5.20
2022-09-22T12:18:42.298Z,5.33
2022-09-22T12:21:26.562Z,6.63
2022-09-22T12:23:57.716Z,6.17
2022-09-22T12:26:28.467Z,5.80
2022-09-22T12:29:10.211Z,6.20
2022-09-22T12:32:02.063Z,5.50
2022-09-22T12:34:36.072Z,6.13
2022-09-22T12:37:12.862Z,6.30
2022-09-22T12:39:48.642Z,5.13
2022-09-22T12:42:23.039Z,5.70
2022-09-22T12:44:57.865Z,5.30
2022-09-22T12:47:36.402Z,5.77
2022-09-22T12:50:10.117Z,5.40
2022-09-22T12:53:03.848Z,5.63
2022-09-22T12:55:38.344Z,5.67
2022-09-22T12:58:44.677Z,5.30
2022-09-22T13:01:37.987Z,5.30
2022-09-22T13:04:18.456Z,5.40
2022-09-22T13:06:58.863Z,5.60
2022-09-22T13:09:34.867Z,5.77
2022-09-22T13:12:25.540Z,5.77
2022-09-22T13:15:00.344Z,6.60
2022-09-22T13:17:41.944Z,5.50
2022-09-22T13:20:23.900Z,6.13
2022-09-22T13:22:55.213Z,5.10
2022-09-22T13:25:32.217Z,6.43
2022-09-22T13:28:06.928Z,5.57
2022-09-22T13:30:36.690Z,6.60
2022-09-22T13:35:56.957Z,6.43
2022-09-22T13:38:36.095Z,5.87
2022-09-22T13:41:12.592Z,6.53
2022-09-22T13:46:25.314Z,6.17
2022-09-22T13:49:02.229Z,5.70
2022-09-22T13:51:35.817Z,5.63
2022-09-22T13:54:10.135Z,5.70
2022-09-22T13:56:42.152Z,5.43
2022-09-22T13:59:18.807Z,5.30
2022-09-22T14:01:53.794Z,6.03
2022-09-22T14:04:27.081Z,5.90
2022-09-22T14:07:05.812Z,5.90
2022-09-22T14:09:38.733Z,5.67
2022-09-22T14:12:13.002Z,5.20
2022-09-22T14:14:48.167Z,5.77
2022-09-22T14:17:25.072Z,5.73
2022-09-22T14:19:59.859Z,5.70
2022-09-22T14:22:46.920Z,5.30
2022-09-22T14:25:33.298Z,5.97
2022-09-22T14:28:05.557Z,5.63
2022-09-22T14:30:38.194Z,5.27
2022-09-22T14:33:29.324Z,5.90
2022-09-22T14:36:08.682Z,5.37
2022-09-22T14:38:47.903Z,5.40
2022-09-22T14:41:36.549Z,5.93
2022-09-22T14:44:28.900Z,6.17
2022-09-22T14:47:02.053Z,5.37
2022-09-22T14:49:47.578Z,5.87
2022-09-22T14:52:29.064Z,5.13
2022-09-22T14:55:05.522Z,5.50
2022-09-22T14:57:38.693Z,5.33
2022-09-22T15:00:30.452Z,5.40
2022-09-22T15:03:01.660Z,5.60
2022-09-22T15:05:36.121Z,5.50
2022-09-22T15:08:07.564Z,7.20
2022-09-22T15:10:40.882Z,5.73
2022-09-22T15:13:29.651Z,5.40
2022-09-22T15:16:02.093Z,5.70
2022-09-22T15:18:34.392Z,5.63
2022-09-22T15:21:19.119Z,5.80
2022-09-22T15:23:53.043Z,5.80
2022-09-22T15:26:28.248Z,5.40
2022-09-22T15:29:02.832Z,7.20
2022-09-22T15:31:35.146Z,5.23
2022-09-22T15:34:07.426Z,5.87
2022-09-22T15:36:46.600Z,5.60
2022-09-22T15:39:22.980Z,5.50
2022-09-22T15:41:55.011Z,5.47
2022-09-22T15:44:25.833Z,5.90
2022-09-22T15:47:02.644Z,5.80
2022-09-22T15:49:37.518Z,5.47
2022-09-22T15:52:11.817Z,5.57
2022-09-22T15:54:44.913Z,6.33
2022-09-22T15:57:18.567Z,6.13
2022-09-22T15:59:49.348Z,5.60
2022-09-22T16:02:24.301Z,5.60
2022-09-22T16:04:57.329Z,6.20
2022-09-22T16:07:32.402Z,5.60
2022-09-22T16:10:07.094Z,5.87
2022-09-22T16:12:39.194Z,5.60
2022-09-22T16:15:12.916Z,6.17
2022-09-22T16:17:44.492Z,6.00
2022-09-22T16:20:16.886Z,5.50
2022-09-22T16:22:52.694Z,7.43
2022-09-22T16:25:24.043Z,7.33
2022-09-22T16:27:54.846Z,5.87
2022-09-22T16:30:27.528Z,5.50
2022-09-22T16:32:58.931Z,6.30
2022-09-22T16:35:29.859Z,6.27
2022-09-22T16:38:04.963Z,5.93
2022-09-22T16:40:37.119Z,5.60
2022-09-22T16:43:08.961Z,5.87
2022-09-22T16:45:52.196Z,6.20
2022-09-22T16:48:22.981Z,7.20
2022-09-22T16:50:56.892Z,5.40
2022-09-22T16:53:30.468Z,5.50
2022-09-22T16:56:02.308Z,6.90
2022-09-22T16:58:36.212Z,5.90
2022-09-22T17:01:08.707Z,5.90
2022-09-22T17:03:42.552Z,7.73
2022-09-22T17:06:14.880Z,6.73
2022-09-22T17:08:52.914Z,8.30
2022-09-22T17:11:29.617Z,6.10
2022-09-22T17:14:11.942Z,7.00
2022-09-22T17:16:44.729Z,6.43
2022-09-22T17:19:18.510Z,6.87
2022-09-22T17:21:51.021Z,6.23
2022-09-22T17:24:25.370Z,6.90
2022-09-22T17:27:01.333Z,6.23
2022-09-22T17:29:33.504Z,7.27
2022-09-22T17:32:09.263Z,7.03
2022-09-22T17:34:42.874Z,9.33
2022-09-22T17:37:14.180Z,6.80
2022-09-22T17:39:47.603Z,7.13
2022-09-22T17:42:18.263Z,9.13
2022-09-22T17:44:48.966Z,7.37
2022-09-22T17:47:32.689Z,8.37
2022-09-22T17:50:15.838Z,9.03
2022-09-22T17:52:59.615Z,8.43
2022-09-22T17:55:33.150Z,9.70
2022-09-22T17:58:03.918Z,7.60
2022-09-22T18:00:35.964Z,8.07
2022-09-22T18:03:06.912Z,8.67
2022-09-22T18:05:41.100Z,9.30
2022-09-22T18:08:12.058Z,10.27
2022-09-22T18:10:46.742Z,9.50
2022-09-22T18:13:17.751Z,9.67
2022-09-22T18:15:49.213Z,8.80
2022-09-22T18:18:19.988Z,9.70
2022-09-22T18:20:58.084Z,8.80
2022-09-22T18:23:30.036Z,10.50
2022-09-22T18:26:04.185Z,9.33
2022-09-22T18:28:36.632Z,9.10
2022-09-22T18:31:09.278Z,10.40
2022-09-22T18:33:40.031Z,9.93
2022-09-22T18:36:10.892Z,8.83
2022-09-22T18:38:44.696Z,9.13
2022-09-22T18:41:19.899Z,11.40
2022-09-22T18:43:52.225Z,10.90
2022-09-22T18:46:23.939Z,12.83
2022-09-22T18:49:04.930Z,13.83
2022-09-22T18:51:36.531Z,12.87
2022-09-22T18:54:09.569Z,15.27
2022-09-22T18:56:46.768Z,13.50
2022-09-22T18:59:23.472Z,15.77
2022-09-22T19:01:57.468Z,15.83
2022-09-22T19:04:28.774Z,16.33
2022-09-22T19:07:25.514Z,16.13
2022-09-22T19:10:16.160Z,16.30
2022-09-22T19:12:54.593Z,16.80
2022-09-22T19:15:25.691Z,23.60
2022-09-22T19:17:58.453Z,27.90
2022-09-22T19:20:29.227Z,26.53
2022-09-22T19:26:30.141Z,22.67
2022-09-22T19:29:03.563Z,22.10
2022-09-22T19:31:34.429Z,18.70
2022-09-22T19:34:06.451Z,15.57
2022-09-22T19:36:37.660Z,14.70
2022-09-22T19:39:11.100Z,11.77
2022-09-22T19:41:47.795Z,11.10
2022-09-22T19:44:26.291Z,11.80
2022-09-22T19:46:57.044Z,12.70
2022-09-22T19:49:28.423Z,12.70
2022-09-22T19:52:01.275Z,11.17
2022-09-22T19:54:31.970Z,9.87
2022-09-22T19:57:02.737Z,10.10
2022-09-22T19:59:36.943Z,8.37
2022-09-22T20:02:13.277Z,8.33
2022-09-22T20:04:44.307Z,7.93
2022-09-22T20:07:15.173Z,8.10
2022-09-22T20:09:46.148Z,8.17
2022-09-22T20:12:16.950Z,8.60
2022-09-22T20:14:51.436Z,12.17
2022-09-22T20:17:22.688Z,8.73
2022-09-22T20:19:54.058Z,9.50
2022-09-22T20:22:29.735Z,9.80
2022-09-22T20:25:06.344Z,9.80
2022-09-22T20:27:40.062Z,8.57
2022-09-22T20:30:17.795Z,8.80
2022-09-22T20:32:48.857Z,9.07
2022-09-22T20:35:21.997Z,9.10
2022-09-22T20:38:01.340Z,9.60
2022-09-22T20:40:32.246Z,9.70
2022-09-22T20:43:03.422Z,9.13
2022-09-22T20:45:37.020Z,10.70
2022-09-22T20:48:09.380Z,9.00
2022-09-22T20:50:40.104Z,8.63
2022-09-22T20:53:12.810Z,8.83
2022-09-22T20:55:46.895Z,8.90
2022-09-22T20:58:19.805Z,9.40
2022-09-22T21:00:55.582Z,8.60
2022-09-22T21:03:28.916Z,8.50
2022-09-22T21:06:02.598Z,8.90
2022-09-22T21:08:51.208Z,10.13
2022-09-22T21:11:23.098Z,8.57
2022-09-22T21:13:58.485Z,8.43
2022-09-22T21:16:32.388Z,10.53
2022-09-22T21:19:05.409Z,10.63
2022-09-22T21:21:37.813Z,7.73
2022-09-22T21:24:11.528Z,9.00
2022-09-22T21:26:42.224Z,8.27
2022-09-22T21:29:16.329Z,8.77
2022-09-22T21:31:50.188Z,8.87
2022-09-22T21:34:24.326Z,8.10
2022-09-22T21:36:55.472Z,14.60
2022-09-22T21:39:26.158Z,8.60
2022-09-22T21:41:56.870Z,8.47
2022-09-22T21:44:27.642Z,7.90
2022-09-22T21:47:00.957Z,8.90
2022-09-22T21:49:31.903Z,12.90
2022-09-22T21:52:03.439Z,8.77
2022-09-22T21:54:36.992Z,13.10
2022-09-22T21:57:07.987Z,9.40
2022-09-22T21:59:41.414Z,8.57
2022-09-22T22:02:14.710Z,8.93
2022-09-22T22:04:46.542Z,10.37
2022-09-22T22:07:17.501Z,9.60
2022-09-22T22:09:48.372Z,8.07
2022-09-22T22:12:23.642Z,7.80
2022-09-22T22:14:55.172Z,7.93
2022-09-22T22:17:28.418Z,7.90
2022-09-22T22:19:59.267Z,9.43
2022-09-22T22:22:32.679Z,9.57
2022-09-22T22:25:04.960Z,10.50
2022-09-22T22:27:35.751Z,8.53
2022-09-22T22:30:07.229Z,8.10
2022-09-22T22:32:42.696Z,7.00
2022-09-22T22:35:13.931Z,9.37
2022-09-22T22:37:47.927Z,7.07
2022-09-22T22:40:18.782Z,6.93
2022-09-22T22:42:52.735Z,8.00
2022-09-22T22:45:25.102Z,6.90
2022-09-22T22:47:58.759Z,9.53
2022-09-22T22:50:29.452Z,7.70
2022-09-22T22:53:00.216Z,7.77
2022-09-22T22:55:30.891Z,7.97
2022-09-22T22:58:01.597Z,9.73
2022-09-22T23:00:35.278Z,7.40
2022-09-22T23:03:09.928Z,8.23
2022-09-22T23:05:44.043Z,7.80
2022-09-22T23:08:15.387Z,7.27
2022-09-22T23:10:47.180Z,6.40
2022-09-22T23:13:20.418Z,8.07
2022-09-22T23:15:51.373Z,7.47
2022-09-22T23:18:24.639Z,7.23
2022-09-22T23:20:57.108Z,7.70
2022-09-22T23:23:28.011Z,7.63
2022-09-22T23:26:01.292Z,6.67
2022-09-22T23:28:35.656Z,8.33
2022-09-22T23:31:09.192Z,7.10
2022-09-22T23:33:46.242Z,6.83
2022-09-22T23:36:19.890Z,7.43
2022-09-22T23:38:50.741Z,6.70
2022-09-22T23:41:21.441Z,8.80
2022-09-22T23:43:54.874Z,7.73
2022-09-22T23:46:25.686Z,7.90
2022-09-22T23:49:00.246Z,6.50
2022-09-22T23:51:31.490Z,7.43
2022-09-22T23:54:02.526Z,11.43
2022-09-22T23:56:33.262Z,7.70
2022-09-22T23:59:04.157Z,6.50
